sensor_id;sensor_type;location;lat;lon;timestamp;P1;durP1;ratioP1;P2;durP2;ratioP2
9208;SDS011;4639;48.862;9.188;2023-06-22T00:01:58;8.38;;;6.72;;
9208;SDS011;4639;48.862;9.188;2023-06-22T00:04:24;9.55;;;7.55;;
9208;SDS011;4639;48.862;9.188;2023-06-22T00:06:50;10.10;;;7.38;;
9208;SDS011;4639;48.862;9.188;2023-06-22T00:09:15;9.02;;;7.10;;
9208;SDS011;4639;48.862;9.188;2023-06-22T00:11:41;10.85;;;6.93;;
9208;SDS011;4639;48.862;9.188;2023-06-22T00:14:07;9.30;;;7.00;;
9208;SDS011;4639;48.862;9.188;2023-06-22T00:16:32;8.93;;;7.78;;
9208;SDS011;4639;48.862;9.188;2023-06-22T00:18:58;13.43;;;7.78;;
9208;SDS011;4639;48.862;9.188;2023-06-22T00:21:29;8.75;;;7.85;;
9208;SDS011;4639;48.862;9.188;2023-06-22T00:23:55;9.85;;;7.55;;
9208;SDS011;4639;48.862;9.188;2023-06-22T00:26:22;10.88;;;7.32;;
9208;SDS011;4639;48.862;9.188;2023-06-22T00:28:48;12.85;;;7.78;;
9208;SDS011;4639;48.862;9.188;2023-06-22T00:31:14;11.18;;;8.00;;
9208;SDS011;4639;48.862;9.188;2023-06-22T00:33:39;13.77;;;7.55;;
9208;SDS011;4639;48.862;9.188;2023-06-22T00:36:05;10.82;;;7.78;;
9208;SDS011;4639;48.862;9.188;2023-06-22T00:38:32;12.65;;;7.60;;
9208;SDS011;4639;48.862;9.188;2023-06-22T00:40:58;9.15;;;7.40;;
9208;SDS011;4639;48.862;9.188;2023-06-22T00:43:24;12.38;;;7.78;;
9208;SDS011;4639;48.862;9.188;2023-06-22T00:45:49;8.48;;;7.57;;
9208;SDS011;4639;48.862;9.188;2023-06-22T00:48:15;9.38;;;7.32;;
9208;SDS011;4639;48.862;9.188;2023-06-22T00:50:41;7.53;;;6.82;;
9208;SDS011;4639;48.862;9.188;2023-06-22T00:53:08;10.10;;;7.43;;
9208;SDS011;4639;48.862;9.188;2023-06-22T00:55:52;9.15;;;8.02;;
9208;SDS011;4639;48.862;9.188;2023-06-22T00:58:18;10.25;;;7.95;;
9208;SDS011;4639;48.862;9.188;2023-06-22T01:00:46;8.30;;;7.45;;
9208;SDS011;4639;48.862;9.188;2023-06-22T01:03:12;7.75;;;6.95;;
9208;SDS011;4639;48.862;9.188;2023-06-22T01:05:38;9.80;;;7.28;;
9208;SDS011;4639;48.862;9.188;2023-06-22T01:13:06;10.57;;;7.93;;
9208;SDS011;4639;48.862;9.188;2023-06-22T01:18:14;8.88;;;7.13;;
9208;SDS011;4639;48.862;9.188;2023-06-22T01:20:41;9.57;;;7.72;;
9208;SDS011;4639;48.862;9.188;2023-06-22T01:23:20;11.10;;;8.65;;
9208;SDS011;4639;48.862;9.188;2023-06-22T01:28:52;11.75;;;9.25;;
9208;SDS011;4639;48.862;9.188;2023-06-22T01:31:22;11.75;;;8.52;;
9208;SDS011;4639;48.862;9.188;2023-06-22T01:33:51;9.35;;;8.25;;
9208;SDS011;4639;48.862;9.188;2023-06-22T01:36:19;9.50;;;8.55;;
9208;SDS011;4639;48.862;9.188;2023-06-22T01:38:47;8.88;;;7.85;;
9208;SDS011;4639;48.862;9.188;2023-06-22T01:41:16;10.40;;;8.70;;
9208;SDS011;4639;48.862;9.188;2023-06-22T01:43:42;10.70;;;7.97;;
9208;SDS011;4639;48.862;9.188;2023-06-22T01:46:08;9.07;;;7.93;;
9208;SDS011;4639;48.862;9.188;2023-06-22T01:48:35;12.10;;;8.65;;
9208;SDS011;4639;48.862;9.188;2023-06-22T01:51:00;9.88;;;8.18;;
9208;SDS011;4639;48.862;9.188;2023-06-22T01:53:27;8.80;;;7.63;;
9208;SDS011;4639;48.862;9.188;2023-06-22T01:55:52;9.07;;;7.50;;
9208;SDS011;4639;48.862;9.188;2023-06-22T01:58:18;9.55;;;7.90;;
9208;SDS011;4639;48.862;9.188;2023-06-22T02:00:53;10.55;;;8.30;;
9208;SDS011;4639;48.862;9.188;2023-06-22T02:03:33;10.15;;;8.57;;
9208;SDS011;4639;48.862;9.188;2023-06-22T02:06:10;8.52;;;7.70;;
9208;SDS011;4639;48.862;9.188;2023-06-22T02:08:41;8.25;;;7.45;;
9208;SDS011;4639;48.862;9.188;2023-06-22T02:11:18;7.68;;;6.95;;
9208;SDS011;4639;48.862;9.188;2023-06-22T02:13:46;11.23;;;7.47;;
9208;SDS011;4639;48.862;9.188;2023-06-22T02:16:13;10.65;;;8.05;;
9208;SDS011;4639;48.862;9.188;2023-06-22T02:18:39;9.32;;;7.88;;
9208;SDS011;4639;48.862;9.188;2023-06-22T02:21:11;10.07;;;7.80;;
9208;SDS011;4639;48.862;9.188;2023-06-22T02:23:37;8.55;;;7.75;;
9208;SDS011;4639;48.862;9.188;2023-06-22T02:26:02;9.20;;;7.75;;
9208;SDS011;4639;48.862;9.188;2023-06-22T02:28:29;9.23;;;8.13;;
9208;SDS011;4639;48.862;9.188;2023-06-22T02:30:54;8.75;;;7.32;;
9208;SDS011;4639;48.862;9.188;2023-06-22T02:33:20;10.60;;;8.07;;
9208;SDS011;4639;48.862;9.188;2023-06-22T02:35:46;10.30;;;7.07;;
9208;SDS011;4639;48.862;9.188;2023-06-22T02:38:14;11.20;;;7.20;;
9208;SDS011;4639;48.862;9.188;2023-06-22T02:40:40;9.57;;;8.20;;
9208;SDS011;4639;48.862;9.188;2023-06-22T02:43:05;8.80;;;7.55;;
9208;SDS011;4639;48.862;9.188;2023-06-22T02:45:31;10.82;;;7.63;;
9208;SDS011;4639;48.862;9.188;2023-06-22T02:47:56;8.77;;;7.80;;
9208;SDS011;4639;48.862;9.188;2023-06-22T02:50:22;8.35;;;7.47;;
9208;SDS011;4639;48.862;9.188;2023-06-22T02:52:48;10.75;;;7.22;;
9208;SDS011;4639;48.862;9.188;2023-06-22T02:55:14;10.90;;;7.90;;
9208;SDS011;4639;48.862;9.188;2023-06-22T02:57:39;8.35;;;7.55;;
9208;SDS011;4639;48.862;9.188;2023-06-22T03:00:09;8.73;;;7.93;;
9208;SDS011;4639;48.862;9.188;2023-06-22T03:02:46;11.95;;;8.25;;
9208;SDS011;4639;48.862;9.188;2023-06-22T03:05:13;8.57;;;7.68;;
9208;SDS011;4639;48.862;9.188;2023-06-22T03:07:40;8.88;;;7.97;;
9208;SDS011;4639;48.862;9.188;2023-06-22T03:10:07;12.32;;;7.95;;
9208;SDS011;4639;48.862;9.188;2023-06-22T03:12:39;10.02;;;7.95;;
9208;SDS011;4639;48.862;9.188;2023-06-22T03:15:06;9.27;;;8.25;;
9208;SDS011;4639;48.862;9.188;2023-06-22T03:17:33;9.52;;;8.27;;
9208;SDS011;4639;48.862;9.188;2023-06-22T03:20:00;8.07;;;7.28;;
9208;SDS011;4639;48.862;9.188;2023-06-22T03:22:29;9.35;;;8.43;;
9208;SDS011;4639;48.862;9.188;2023-06-22T03:24:55;11.60;;;8.40;;
9208;SDS011;4639;48.862;9.188;2023-06-22T03:27:20;11.20;;;8.43;;
9208;SDS011;4639;48.862;9.188;2023-06-22T03:29:46;8.65;;;7.80;;
9208;SDS011;4639;48.862;9.188;2023-06-22T03:32:12;10.88;;;8.68;;
9208;SDS011;4639;48.862;9.188;2023-06-22T03:34:37;11.27;;;8.73;;
9208;SDS011;4639;48.862;9.188;2023-06-22T03:37:03;8.85;;;7.82;;
9208;SDS011;4639;48.862;9.188;2023-06-22T03:39:28;10.35;;;8.88;;
9208;SDS011;4639;48.862;9.188;2023-06-22T03:41:54;11.93;;;7.90;;
9208;SDS011;4639;48.862;9.188;2023-06-22T03:44:20;10.07;;;8.35;;
9208;SDS011;4639;48.862;9.188;2023-06-22T03:46:45;9.57;;;8.57;;
9208;SDS011;4639;48.862;9.188;2023-06-22T03:49:11;9.30;;;8.30;;
9208;SDS011;4639;48.862;9.188;2023-06-22T03:51:36;13.93;;;8.88;;
9208;SDS011;4639;48.862;9.188;2023-06-22T03:54:02;8.88;;;7.93;;
9208;SDS011;4639;48.862;9.188;2023-06-22T03:56:27;10.38;;;8.25;;
9208;SDS011;4639;48.862;9.188;2023-06-22T03:58:53;14.57;;;8.88;;
9208;SDS011;4639;48.862;9.188;2023-06-22T04:01:18;10.88;;;8.43;;
9208;SDS011;4639;48.862;9.188;2023-06-22T04:03:44;10.95;;;8.10;;
9208;SDS011;4639;48.862;9.188;2023-06-22T04:06:13;11.70;;;8.73;;
9208;SDS011;4639;48.862;9.188;2023-06-22T04:08:38;9.75;;;8.68;;
9208;SDS011;4639;48.862;9.188;2023-06-22T04:11:04;11.13;;;8.60;;
9208;SDS011;4639;48.862;9.188;2023-06-22T04:13:30;9.70;;;8.70;;
9208;SDS011;4639;48.862;9.188;2023-06-22T04:15:55;9.52;;;8.45;;
9208;SDS011;4639;48.862;9.188;2023-06-22T04:18:21;9.95;;;8.45;;
9208;SDS011;4639;48.862;9.188;2023-06-22T04:20:46;11.05;;;8.68;;
9208;SDS011;4639;48.862;9.188;2023-06-22T04:23:12;10.05;;;8.27;;
9208;SDS011;4639;48.862;9.188;2023-06-22T04:25:38;10.57;;;8.77;;
9208;SDS011;4639;48.862;9.188;2023-06-22T04:28:04;10.95;;;8.75;;
9208;SDS011;4639;48.862;9.188;2023-06-22T04:30:30;9.07;;;7.88;;
9208;SDS011;4639;48.862;9.188;2023-06-22T04:32:57;11.15;;;8.52;;
9208;SDS011;4639;48.862;9.188;2023-06-22T04:35:23;11.52;;;8.98;;
9208;SDS011;4639;48.862;9.188;2023-06-22T04:37:49;14.98;;;8.20;;
9208;SDS011;4639;48.862;9.188;2023-06-22T04:40:15;11.25;;;8.93;;
9208;SDS011;4639;48.862;9.188;2023-06-22T04:42:40;12.32;;;9.07;;
9208;SDS011;4639;48.862;9.188;2023-06-22T04:45:18;9.40;;;8.45;;
9208;SDS011;4639;48.862;9.188;2023-06-22T04:47:44;9.55;;;8.60;;
9208;SDS011;4639;48.862;9.188;2023-06-22T04:50:10;10.50;;;8.60;;
9208;SDS011;4639;48.862;9.188;2023-06-22T04:52:39;9.85;;;8.80;;
9208;SDS011;4639;48.862;9.188;2023-06-22T04:55:05;9.25;;;7.47;;
9208;SDS011;4639;48.862;9.188;2023-06-22T04:57:31;12.85;;;8.27;;
9208;SDS011;4639;48.862;9.188;2023-06-22T05:00:00;10.45;;;8.68;;
9208;SDS011;4639;48.862;9.188;2023-06-22T05:02:37;11.65;;;8.55;;
9208;SDS011;4639;48.862;9.188;2023-06-22T05:05:06;9.10;;;7.50;;
9208;SDS011;4639;48.862;9.188;2023-06-22T05:07:35;8.60;;;7.68;;
9208;SDS011;4639;48.862;9.188;2023-06-22T05:10:02;11.50;;;7.68;;
9208;SDS011;4639;48.862;9.188;2023-06-22T05:12:29;12.77;;;8.98;;
9208;SDS011;4639;48.862;9.188;2023-06-22T05:14:55;10.20;;;8.20;;
9208;SDS011;4639;48.862;9.188;2023-06-22T05:17:20;10.75;;;8.70;;
9208;SDS011;4639;48.862;9.188;2023-06-22T05:19:46;9.45;;;8.23;;
9208;SDS011;4639;48.862;9.188;2023-06-22T05:22:14;11.20;;;8.95;;
9208;SDS011;4639;48.862;9.188;2023-06-22T05:24:40;14.20;;;8.30;;
9208;SDS011;4639;48.862;9.188;2023-06-22T05:27:05;11.93;;;8.75;;
9208;SDS011;4639;48.862;9.188;2023-06-22T05:29:31;13.15;;;8.68;;
9208;SDS011;4639;48.862;9.188;2023-06-22T05:31:57;16.15;;;8.27;;
9208;SDS011;4639;48.862;9.188;2023-06-22T05:34:22;11.23;;;8.25;;
9208;SDS011;4639;48.862;9.188;2023-06-22T05:36:48;16.10;;;8.32;;
9208;SDS011;4639;48.862;9.188;2023-06-22T05:39:13;12.15;;;8.73;;
9208;SDS011;4639;48.862;9.188;2023-06-22T05:41:40;11.02;;;8.20;;
9208;SDS011;4639;48.862;9.188;2023-06-22T05:44:05;9.43;;;8.40;;
9208;SDS011;4639;48.862;9.188;2023-06-22T05:46:31;11.10;;;8.27;;
9208;SDS011;4639;48.862;9.188;2023-06-22T05:48:57;13.48;;;8.38;;
9208;SDS011;4639;48.862;9.188;2023-06-22T05:51:22;10.52;;;8.45;;
9208;SDS011;4639;48.862;9.188;2023-06-22T05:53:48;14.05;;;8.77;;
9208;SDS011;4639;48.862;9.188;2023-06-22T05:56:15;11.45;;;9.00;;
9208;SDS011;4639;48.862;9.188;2023-06-22T05:58:41;11.30;;;8.07;;
9208;SDS011;4639;48.862;9.188;2023-06-22T06:01:06;10.15;;;8.98;;
9208;SDS011;4639;48.862;9.188;2023-06-22T06:03:32;11.00;;;8.88;;
9208;SDS011;4639;48.862;9.188;2023-06-22T06:05:57;13.50;;;8.98;;
9208;SDS011;4639;48.862;9.188;2023-06-22T06:08:23;12.32;;;8.43;;
9208;SDS011;4639;48.862;9.188;2023-06-22T06:10:49;9.93;;;7.65;;
9208;SDS011;4639;48.862;9.188;2023-06-22T06:13:14;12.10;;;9.13;;
9208;SDS011;4639;48.862;9.188;2023-06-22T06:15:40;13.00;;;8.30;;
9208;SDS011;4639;48.862;9.188;2023-06-22T06:18:05;10.73;;;8.70;;
9208;SDS011;4639;48.862;9.188;2023-06-22T06:20:31;10.68;;;8.40;;
9208;SDS011;4639;48.862;9.188;2023-06-22T06:22:57;15.18;;;8.90;;
9208;SDS011;4639;48.862;9.188;2023-06-22T06:25:23;12.43;;;8.43;;
9208;SDS011;4639;48.862;9.188;2023-06-22T06:27:50;9.90;;;8.88;;
9208;SDS011;4639;48.862;9.188;2023-06-22T06:30:16;11.82;;;7.93;;
9208;SDS011;4639;48.862;9.188;2023-06-22T06:32:44;9.32;;;8.32;;
9208;SDS011;4639;48.862;9.188;2023-06-22T06:35:11;14.18;;;8.18;;
9208;SDS011;4639;48.862;9.188;2023-06-22T06:37:41;15.20;;;7.88;;
9208;SDS011;4639;48.862;9.188;2023-06-22T06:40:09;8.48;;;7.63;;
9208;SDS011;4639;48.862;9.188;2023-06-22T06:42:44;8.43;;;7.43;;
9208;SDS011;4639;48.862;9.188;2023-06-22T06:45:11;9.55;;;7.38;;
9208;SDS011;4639;48.862;9.188;2023-06-22T06:47:38;8.70;;;7.88;;
9208;SDS011;4639;48.862;9.188;2023-06-22T06:50:04;9.15;;;7.78;;
9208;SDS011;4639;48.862;9.188;2023-06-22T06:52:30;10.45;;;7.35;;
9208;SDS011;4639;48.862;9.188;2023-06-22T06:54:56;8.05;;;6.43;;
9208;SDS011;4639;48.862;9.188;2023-06-22T06:57:21;10.40;;;6.38;;
9208;SDS011;4639;48.862;9.188;2023-06-22T06:59:47;8.63;;;7.47;;
9208;SDS011;4639;48.862;9.188;2023-06-22T07:02:14;9.02;;;7.25;;
9208;SDS011;4639;48.862;9.188;2023-06-22T07:04:42;12.50;;;6.93;;
9208;SDS011;4639;48.862;9.188;2023-06-22T07:07:08;9.63;;;7.05;;
9208;SDS011;4639;48.862;9.188;2023-06-22T07:09:33;10.52;;;6.95;;
9208;SDS011;4639;48.862;9.188;2023-06-22T07:11:59;11.23;;;7.20;;
9208;SDS011;4639;48.862;9.188;2023-06-22T07:14:24;8.25;;;6.32;;
9208;SDS011;4639;48.862;9.188;2023-06-22T07:16:50;10.18;;;6.50;;
9208;SDS011;4639;48.862;9.188;2023-06-22T07:19:15;11.95;;;6.05;;
9208;SDS011;4639;48.862;9.188;2023-06-22T07:21:41;10.35;;;6.65;;
9208;SDS011;4639;48.862;9.188;2023-06-22T07:24:07;10.15;;;6.35;;
9208;SDS011;4639;48.862;9.188;2023-06-22T07:26:32;6.20;;;5.60;;
9208;SDS011;4639;48.862;9.188;2023-06-22T07:28:58;7.50;;;5.72;;
9208;SDS011;4639;48.862;9.188;2023-06-22T07:31:24;7.50;;;5.57;;
9208;SDS011;4639;48.862;9.188;2023-06-22T07:33:50;7.82;;;5.38;;
9208;SDS011;4639;48.862;9.188;2023-06-22T07:36:16;10.60;;;5.55;;
9208;SDS011;4639;48.862;9.188;2023-06-22T07:38:42;6.50;;;4.93;;
9208;SDS011;4639;48.862;9.188;2023-06-22T07:41:08;8.23;;;5.15;;
9208;SDS011;4639;48.862;9.188;2023-06-22T07:43:34;7.65;;;5.60;;
9208;SDS011;4639;48.862;9.188;2023-06-22T07:46:02;8.30;;;5.20;;
9208;SDS011;4639;48.862;9.188;2023-06-22T07:48:28;7.30;;;5.28;;
9208;SDS011;4639;48.862;9.188;2023-06-22T07:50:54;10.80;;;5.40;;
9208;SDS011;4639;48.862;9.188;2023-06-22T07:53:20;7.05;;;5.15;;
9208;SDS011;4639;48.862;9.188;2023-06-22T07:55:46;8.25;;;5.50;;
9208;SDS011;4639;48.862;9.188;2023-06-22T07:58:12;5.13;;;4.57;;
9208;SDS011;4639;48.862;9.188;2023-06-22T08:00:38;7.28;;;5.22;;
9208;SDS011;4639;48.862;9.188;2023-06-22T08:03:03;9.00;;;5.05;;
9208;SDS011;4639;48.862;9.188;2023-06-22T08:05:30;6.15;;;4.63;;
9208;SDS011;4639;48.862;9.188;2023-06-22T08:07:56;6.13;;;4.50;;
9208;SDS011;4639;48.862;9.188;2023-06-22T08:10:22;9.80;;;4.57;;
9208;SDS011;4639;48.862;9.188;2023-06-22T08:12:47;10.77;;;4.88;;
9208;SDS011;4639;48.862;9.188;2023-06-22T08:15:13;7.88;;;4.85;;
9208;SDS011;4639;48.862;9.188;2023-06-22T08:17:38;10.80;;;5.20;;
9208;SDS011;4639;48.862;9.188;2023-06-22T08:20:05;7.35;;;4.93;;
9208;SDS011;4639;48.862;9.188;2023-06-22T08:22:35;6.35;;;5.13;;
9208;SDS011;4639;48.862;9.188;2023-06-22T08:25:02;9.23;;;4.78;;
9208;SDS011;4639;48.862;9.188;2023-06-22T08:27:29;8.85;;;4.45;;
9208;SDS011;4639;48.862;9.188;2023-06-22T08:29:57;9.63;;;4.65;;
9208;SDS011;4639;48.862;9.188;2023-06-22T08:32:27;8.68;;;5.22;;
9208;SDS011;4639;48.862;9.188;2023-06-22T08:34:56;8.50;;;4.68;;
9208;SDS011;4639;48.862;9.188;2023-06-22T08:37:22;9.30;;;4.68;;
9208;SDS011;4639;48.862;9.188;2023-06-22T08:39:55;11.77;;;5.22;;
9208;SDS011;4639;48.862;9.188;2023-06-22T08:42:24;9.35;;;4.93;;
9208;SDS011;4639;48.862;9.188;2023-06-22T08:44:50;8.60;;;4.35;;
9208;SDS011;4639;48.862;9.188;2023-06-22T08:47:16;8.23;;;4.65;;
9208;SDS011;4639;48.862;9.188;2023-06-22T08:49:41;5.70;;;4.90;;
9208;SDS011;4639;48.862;9.188;2023-06-22T08:52:07;11.20;;;4.57;;
9208;SDS011;4639;48.862;9.188;2023-06-22T08:54:33;6.95;;;4.40;;
9208;SDS011;4639;48.862;9.188;2023-06-22T08:56:59;7.32;;;5.35;;
9208;SDS011;4639;48.862;9.188;2023-06-22T08:59:27;7.28;;;5.03;;
9208;SDS011;4639;48.862;9.188;2023-06-22T09:01:53;7.38;;;4.78;;
9208;SDS011;4639;48.862;9.188;2023-06-22T09:04:19;13.98;;;4.95;;
9208;SDS011;4639;48.862;9.188;2023-06-22T09:06:47;8.18;;;4.22;;
9208;SDS011;4639;48.862;9.188;2023-06-22T09:09:13;8.45;;;4.55;;
9208;SDS011;4639;48.862;9.188;2023-06-22T09:11:39;12.05;;;5.20;;
9208;SDS011;4639;48.862;9.188;2023-06-22T09:14:05;10.23;;;5.18;;
9208;SDS011;4639;48.862;9.188;2023-06-22T09:16:31;8.32;;;4.60;;
9208;SDS011;4639;48.862;9.188;2023-06-22T09:18:57;9.48;;;5.15;;
9208;SDS011;4639;48.862;9.188;2023-06-22T09:21:22;10.10;;;5.32;;
9208;SDS011;4639;48.862;9.188;2023-06-22T09:23:48;7.75;;;5.18;;
9208;SDS011;4639;48.862;9.188;2023-06-22T09:26:16;7.93;;;4.75;;
9208;SDS011;4639;48.862;9.188;2023-06-22T09:28:42;9.35;;;5.63;;
9208;SDS011;4639;48.862;9.188;2023-06-22T09:31:08;12.95;;;6.88;;
9208;SDS011;4639;48.862;9.188;2023-06-22T09:33:33;10.55;;;5.30;;
9208;SDS011;4639;48.862;9.188;2023-06-22T09:36:00;7.53;;;4.75;;
9208;SDS011;4639;48.862;9.188;2023-06-22T09:38:25;12.32;;;5.72;;
9208;SDS011;4639;48.862;9.188;2023-06-22T09:40:51;12.13;;;5.65;;
9208;SDS011;4639;48.862;9.188;2023-06-22T09:43:16;11.23;;;5.30;;
9208;SDS011;4639;48.862;9.188;2023-06-22T09:45:42;8.15;;;5.25;;
9208;SDS011;4639;48.862;9.188;2023-06-22T09:48:08;9.77;;;5.75;;
9208;SDS011;4639;48.862;9.188;2023-06-22T09:50:35;15.38;;;4.80;;
9208;SDS011;4639;48.862;9.188;2023-06-22T09:53:01;8.93;;;5.68;;
9208;SDS011;4639;48.862;9.188;2023-06-22T09:55:27;9.10;;;5.10;;
9208;SDS011;4639;48.862;9.188;2023-06-22T09:57:52;10.75;;;5.68;;
9208;SDS011;4639;48.862;9.188;2023-06-22T10:00:19;12.40;;;6.03;;
9208;SDS011;4639;48.862;9.188;2023-06-22T10:02:45;9.85;;;5.63;;
9208;SDS011;4639;48.862;9.188;2023-06-22T10:05:11;13.07;;;5.97;;
9208;SDS011;4639;48.862;9.188;2023-06-22T10:07:37;11.73;;;5.60;;
9208;SDS011;4639;48.862;9.188;2023-06-22T10:10:08;8.07;;;5.10;;
9208;SDS011;4639;48.862;9.188;2023-06-22T10:12:40;7.70;;;5.03;;
9208;SDS011;4639;48.862;9.188;2023-06-22T10:15:10;14.38;;;5.97;;
9208;SDS011;4639;48.862;9.188;2023-06-22T10:17:35;8.85;;;5.28;;
9208;SDS011;4639;48.862;9.188;2023-06-22T10:20:01;12.18;;;5.80;;
9208;SDS011;4639;48.862;9.188;2023-06-22T10:22:31;10.80;;;5.18;;
9208;SDS011;4639;48.862;9.188;2023-06-22T10:24:57;6.63;;;4.97;;
9208;SDS011;4639;48.862;9.188;2023-06-22T10:27:22;9.10;;;5.15;;
9208;SDS011;4639;48.862;9.188;2023-06-22T10:29:48;13.27;;;5.10;;
9208;SDS011;4639;48.862;9.188;2023-06-22T10:32:13;10.80;;;5.45;;
9208;SDS011;4639;48.862;9.188;2023-06-22T10:34:39;9.48;;;5.32;;
9208;SDS011;4639;48.862;9.188;2023-06-22T10:37:04;11.52;;;5.75;;
9208;SDS011;4639;48.862;9.188;2023-06-22T10:39:30;6.80;;;4.70;;
9208;SDS011;4639;48.862;9.188;2023-06-22T10:41:56;10.38;;;4.93;;
9208;SDS011;4639;48.862;9.188;2023-06-22T10:44:21;13.23;;;5.53;;
9208;SDS011;4639;48.862;9.188;2023-06-22T10:46:47;8.30;;;4.93;;
9208;SDS011;4639;48.862;9.188;2023-06-22T10:49:12;8.93;;;5.60;;
9208;SDS011;4639;48.862;9.188;2023-06-22T10:51:38;9.95;;;5.32;;
9208;SDS011;4639;48.862;9.188;2023-06-22T10:54:03;13.20;;;5.30;;
9208;SDS011;4639;48.862;9.188;2023-06-22T10:56:29;11.45;;;5.82;;
9208;SDS011;4639;48.862;9.188;2023-06-22T10:58:55;11.15;;;5.57;;
9208;SDS011;4639;48.862;9.188;2023-06-22T11:01:20;11.48;;;5.10;;
9208;SDS011;4639;48.862;9.188;2023-06-22T11:03:46;9.52;;;5.38;;
9208;SDS011;4639;48.862;9.188;2023-06-22T11:06:11;8.57;;;5.30;;
9208;SDS011;4639;48.862;9.188;2023-06-22T11:08:37;10.25;;;5.25;;
9208;SDS011;4639;48.862;9.188;2023-06-22T11:11:02;12.55;;;5.13;;
9208;SDS011;4639;48.862;9.188;2023-06-22T11:13:28;9.82;;;5.55;;
9208;SDS011;4639;48.862;9.188;2023-06-22T11:15:53;8.68;;;5.05;;
9208;SDS011;4639;48.862;9.188;2023-06-22T11:18:19;12.38;;;5.40;;
9208;SDS011;4639;48.862;9.188;2023-06-22T11:20:45;16.42;;;5.15;;
9208;SDS011;4639;48.862;9.188;2023-06-22T11:23:10;9.38;;;4.82;;
9208;SDS011;4639;48.862;9.188;2023-06-22T11:25:37;12.13;;;5.22;;
9208;SDS011;4639;48.862;9.188;2023-06-22T11:28:03;10.07;;;5.55;;
9208;SDS011;4639;48.862;9.188;2023-06-22T11:30:29;8.30;;;4.85;;
9208;SDS011;4639;48.862;9.188;2023-06-22T11:32:56;10.57;;;5.32;;
9208;SDS011;4639;48.862;9.188;2023-06-22T11:35:23;8.80;;;5.15;;
9208;SDS011;4639;48.862;9.188;2023-06-22T11:37:49;9.27;;;4.93;;
9208;SDS011;4639;48.862;9.188;2023-06-22T11:40:14;9.30;;;5.32;;
9208;SDS011;4639;48.862;9.188;2023-06-22T11:42:40;10.43;;;5.22;;
9208;SDS011;4639;48.862;9.188;2023-06-22T11:45:06;13.10;;;5.72;;
9208;SDS011;4639;48.862;9.188;2023-06-22T11:47:32;10.52;;;5.30;;
9208;SDS011;4639;48.862;9.188;2023-06-22T11:49:57;9.48;;;4.80;;
9208;SDS011;4639;48.862;9.188;2023-06-22T11:52:23;7.47;;;5.10;;
9208;SDS011;4639;48.862;9.188;2023-06-22T11:54:48;8.90;;;5.32;;
9208;SDS011;4639;48.862;9.188;2023-06-22T11:57:14;11.90;;;5.38;;
9208;SDS011;4639;48.862;9.188;2023-06-22T11:59:39;10.85;;;4.93;;
9208;SDS011;4639;48.862;9.188;2023-06-22T12:02:05;11.35;;;5.00;;
9208;SDS011;4639;48.862;9.188;2023-06-22T12:04:32;14.25;;;5.68;;
9208;SDS011;4639;48.862;9.188;2023-06-22T12:06:58;11.45;;;5.63;;
9208;SDS011;4639;48.862;9.188;2023-06-22T12:09:23;10.23;;;5.25;;
9208;SDS011;4639;48.862;9.188;2023-06-22T12:11:49;14.52;;;5.70;;
9208;SDS011;4639;48.862;9.188;2023-06-22T12:14:14;9.23;;;5.22;;
9208;SDS011;4639;48.862;9.188;2023-06-22T12:16:40;14.55;;;5.00;;
9208;SDS011;4639;48.862;9.188;2023-06-22T12:19:06;8.35;;;4.97;;
9208;SDS011;4639;48.862;9.188;2023-06-22T12:21:31;8.98;;;5.63;;
9208;SDS011;4639;48.862;9.188;2023-06-22T12:23:57;14.70;;;5.35;;
9208;SDS011;4639;48.862;9.188;2023-06-22T12:26:22;10.55;;;5.53;;
9208;SDS011;4639;48.862;9.188;2023-06-22T12:28:48;11.52;;;5.10;;
9208;SDS011;4639;48.862;9.188;2023-06-22T12:31:14;16.08;;;5.45;;
9208;SDS011;4639;48.862;9.188;2023-06-22T12:33:39;13.00;;;5.22;;
9208;SDS011;4639;48.862;9.188;2023-06-22T12:36:05;10.63;;;5.55;;
9208;SDS011;4639;48.862;9.188;2023-06-22T12:38:31;11.77;;;5.82;;
9208;SDS011;4639;48.862;9.188;2023-06-22T12:40:56;11.48;;;5.18;;
9208;SDS011;4639;48.862;9.188;2023-06-22T12:43:22;9.43;;;4.97;;
9208;SDS011;4639;48.862;9.188;2023-06-22T12:45:47;15.25;;;5.90;;
9208;SDS011;4639;48.862;9.188;2023-06-22T12:48:13;12.60;;;5.88;;
9208;SDS011;4639;48.862;9.188;2023-06-22T12:50:38;10.35;;;6.43;;
9208;SDS011;4639;48.862;9.188;2023-06-22T12:53:04;13.00;;;6.07;;
9208;SDS011;4639;48.862;9.188;2023-06-22T12:55:31;16.73;;;6.38;;
9208;SDS011;4639;48.862;9.188;2023-06-22T12:57:57;12.15;;;6.03;;
9208;SDS011;4639;48.862;9.188;2023-06-22T13:00:22;7.97;;;5.57;;
9208;SDS011;4639;48.862;9.188;2023-06-22T13:02:48;12.70;;;6.00;;
9208;SDS011;4639;48.862;9.188;2023-06-22T13:05:14;14.35;;;6.20;;
9208;SDS011;4639;48.862;9.188;2023-06-22T13:07:39;14.07;;;5.95;;
9208;SDS011;4639;48.862;9.188;2023-06-22T13:10:07;16.27;;;6.47;;
9208;SDS011;4639;48.862;9.188;2023-06-22T13:12:33;14.77;;;6.45;;
9208;SDS011;4639;48.862;9.188;2023-06-22T13:14:58;14.50;;;6.28;;
9208;SDS011;4639;48.862;9.188;2023-06-22T13:17:24;14.18;;;5.70;;
9208;SDS011;4639;48.862;9.188;2023-06-22T13:19:49;10.98;;;5.43;;
9208;SDS011;4639;48.862;9.188;2023-06-22T13:22:28;17.05;;;5.88;;
9208;SDS011;4639;48.862;9.188;2023-06-22T13:24:55;12.93;;;5.85;;
9208;SDS011;4639;48.862;9.188;2023-06-22T13:27:21;16.80;;;5.57;;
9208;SDS011;4639;48.862;9.188;2023-06-22T13:29:47;11.25;;;6.13;;
9208;SDS011;4639;48.862;9.188;2023-06-22T13:32:13;20.40;;;6.38;;
9208;SDS011;4639;48.862;9.188;2023-06-22T13:34:38;16.20;;;5.80;;
9208;SDS011;4639;48.862;9.188;2023-06-22T13:37:04;12.13;;;5.22;;
9208;SDS011;4639;48.862;9.188;2023-06-22T13:39:30;12.57;;;5.88;;
9208;SDS011;4639;48.862;9.188;2023-06-22T13:41:56;16.60;;;5.93;;
9208;SDS011;4639;48.862;9.188;2023-06-22T13:44:22;11.25;;;5.95;;
9208;SDS011;4639;48.862;9.188;2023-06-22T13:46:48;16.08;;;5.45;;
9208;SDS011;4639;48.862;9.188;2023-06-22T13:49:14;12.23;;;5.68;;
9208;SDS011;4639;48.862;9.188;2023-06-22T13:51:39;19.50;;;6.82;;
9208;SDS011;4639;48.862;9.188;2023-06-22T13:54:05;10.75;;;5.63;;
9208;SDS011;4639;48.862;9.188;2023-06-22T13:56:31;14.73;;;5.93;;
9208;SDS011;4639;48.862;9.188;2023-06-22T13:58:57;14.02;;;5.45;;
9208;SDS011;4639;48.862;9.188;2023-06-22T14:01:23;13.30;;;5.95;;
9208;SDS011;4639;48.862;9.188;2023-06-22T14:03:48;18.45;;;5.80;;
9208;SDS011;4639;48.862;9.188;2023-06-22T14:06:14;9.95;;;5.50;;
9208;SDS011;4639;48.862;9.188;2023-06-22T14:08:40;15.27;;;5.50;;
9208;SDS011;4639;48.862;9.188;2023-06-22T14:11:05;14.02;;;6.05;;
9208;SDS011;4639;48.862;9.188;2023-06-22T14:13:31;18.02;;;5.70;;
9208;SDS011;4639;48.862;9.188;2023-06-22T14:15:56;16.02;;;5.82;;
9208;SDS011;4639;48.862;9.188;2023-06-22T14:18:22;15.93;;;6.18;;
9208;SDS011;4639;48.862;9.188;2023-06-22T14:20:48;13.57;;;5.53;;
9208;SDS011;4639;48.862;9.188;2023-06-22T14:23:14;15.23;;;5.50;;
9208;SDS011;4639;48.862;9.188;2023-06-22T14:25:40;10.38;;;5.72;;
9208;SDS011;4639;48.862;9.188;2023-06-22T14:28:05;15.93;;;5.90;;
9208;SDS011;4639;48.862;9.188;2023-06-22T14:30:31;16.70;;;5.70;;
9208;SDS011;4639;48.862;9.188;2023-06-22T14:32:56;13.30;;;5.50;;
9208;SDS011;4639;48.862;9.188;2023-06-22T14:35:22;14.38;;;5.47;;
9208;SDS011;4639;48.862;9.188;2023-06-22T14:37:49;13.32;;;6.07;;
9208;SDS011;4639;48.862;9.188;2023-06-22T14:40:15;18.60;;;5.50;;
9208;SDS011;4639;48.862;9.188;2023-06-22T14:42:40;14.82;;;5.47;;
9208;SDS011;4639;48.862;9.188;2023-06-22T14:45:06;15.82;;;5.70;;
9208;SDS011;4639;48.862;9.188;2023-06-22T14:47:32;19.67;;;5.55;;
9208;SDS011;4639;48.862;9.188;2023-06-22T14:49:58;9.75;;;4.80;;
9208;SDS011;4639;48.862;9.188;2023-06-22T14:52:25;11.50;;;5.45;;
9208;SDS011;4639;48.862;9.188;2023-06-22T14:54:51;10.73;;;5.38;;
9208;SDS011;4639;48.862;9.188;2023-06-22T14:57:17;16.13;;;4.93;;
9208;SDS011;4639;48.862;9.188;2023-06-22T14:59:45;14.40;;;5.60;;
9208;SDS011;4639;48.862;9.188;2023-06-22T15:02:14;10.50;;;4.60;;
9208;SDS011;4639;48.862;9.188;2023-06-22T15:04:40;14.02;;;4.63;;
9208;SDS011;4639;48.862;9.188;2023-06-22T15:07:05;15.10;;;4.53;;
9208;SDS011;4639;48.862;9.188;2023-06-22T15:09:31;16.10;;;4.25;;
9208;SDS011;4639;48.862;9.188;2023-06-22T15:11:58;11.90;;;3.63;;
9208;SDS011;4639;48.862;9.188;2023-06-22T15:14:26;17.67;;;4.07;;